createdAt,value
2023-05-19T00:01:05.491Z,15.06
2023-05-19T00:06:09.005Z,14.78
2023-05-19T00:11:11.793Z,14.62
2023-05-19T00:16:14.988Z,14.90
2023-05-19T00:21:17.548Z,14.23
2023-05-19T00:26:19.934Z,14.46
2023-05-19T00:31:31.884Z,14.92
2023-05-19T00:36:34.250Z,14.39
2023-05-19T00:41:36.878Z,14.92
2023-05-19T00:46:39.279Z,14.31
2023-05-19T00:51:41.763Z,14.31
2023-05-19T00:56:44.105Z,14.18
2023-05-19T01:01:49.091Z,14.14
2023-05-19T01:06:57.030Z,14.25
2023-05-19T01:12:01.134Z,14.60
2023-05-19T01:17:49.887Z,14.69
2023-05-19T01:23:36.816Z,14.17
2023-05-19T01:28:57.746Z,14.57
2023-05-19T01:34:01.008Z,14.26
2023-05-19T01:39:03.954Z,14.79
2023-05-19T01:44:07.207Z,14.58
2023-05-19T01:49:10.006Z,14.55
2023-05-19T01:54:12.926Z,14.12
2023-05-19T01:59:41.961Z,14.28
2023-05-19T02:04:56.106Z,13.89
2023-05-19T02:10:12.173Z,13.54
2023-05-19T02:15:22.670Z,14.25
2023-05-19T02:20:25.063Z,13.61
2023-05-19T02:25:27.570Z,13.43
2023-05-19T02:30:32.145Z,14.18
2023-05-19T02:35:35.926Z,14.20
2023-05-19T02:40:38.257Z,13.84
2023-05-19T02:45:41.045Z,13.82
2023-05-19T02:50:43.320Z,13.28
2023-05-19T02:55:45.920Z,13.70
2023-05-19T03:00:48.286Z,13.87
2023-05-19T03:05:50.553Z,13.29
2023-05-19T03:10:52.885Z,13.87
2023-05-19T03:15:58.043Z,13.90
2023-05-19T03:21:00.552Z,13.98
2023-05-19T03:26:03.200Z,13.66
2023-05-19T03:31:06.287Z,13.53
2023-05-19T03:36:13.466Z,14.13
2023-05-19T03:41:15.986Z,14.10
2023-05-19T03:46:18.426Z,13.20
2023-05-19T03:51:40.278Z,13.59
2023-05-19T03:56:55.047Z,12.81
2023-05-19T04:01:58.184Z,13.11
2023-05-19T04:07:01.783Z,12.62
2023-05-19T04:12:04.218Z,13.10
2023-05-19T04:17:06.704Z,12.94
2023-05-19T04:22:09.020Z,12.76
2023-05-19T04:27:12.467Z,12.73
2023-05-19T04:32:18.061Z,12.93
2023-05-19T04:37:21.175Z,12.76
2023-05-19T04:42:26.127Z,13.84
2023-05-19T04:47:30.132Z,13.60
2023-05-19T04:52:33.879Z,14.36
2023-05-19T04:57:37.868Z,16.38
2023-05-19T05:02:41.482Z,16.99
2023-05-19T05:07:44.258Z,18.82
2023-05-19T05:12:47.123Z,18.85
2023-05-19T05:17:50.185Z,17.98
2023-05-19T05:22:53.341Z,16.20
2023-05-19T05:27:59.044Z,18.17
2023-05-19T05:33:02.655Z,16.03
2023-05-19T05:38:11.708Z,19.01
2023-05-19T05:43:14.952Z,15.86
2023-05-19T05:48:23.679Z,14.94
2023-05-19T05:53:31.022Z,15.62
2023-05-19T05:58:37.314Z,15.39
2023-05-19T06:03:44.491Z,15.20
2023-05-19T06:08:49.870Z,15.17
2023-05-19T06:13:53.367Z,14.83
2023-05-19T06:19:15.764Z,15.86
2023-05-19T06:24:18.232Z,14.12
2023-05-19T06:29:20.704Z,15.29
2023-05-19T06:34:24.476Z,16.51
2023-05-19T06:39:26.924Z,16.22
2023-05-19T06:44:29.910Z,16.57
2023-05-19T06:49:32.212Z,16.08
2023-05-19T06:54:34.642Z,15.92
2023-05-19T06:59:40.842Z,15.97
2023-05-19T07:04:43.650Z,16.04
2023-05-19T07:09:47.976Z,16.60
2023-05-19T07:14:50.722Z,17.09
2023-05-19T07:19:53.534Z,16.33
2023-05-19T07:24:57.163Z,16.91
2023-05-19T07:29:59.700Z,16.66
2023-05-19T07:35:02.162Z,16.39
2023-05-19T07:40:06.976Z,17.00
2023-05-19T07:45:09.898Z,17.56
2023-05-19T07:50:12.264Z,17.62
2023-05-19T07:55:15.039Z,17.08
2023-05-19T08:00:17.926Z,16.66
2023-05-19T08:05:20.207Z,16.47
2023-05-19T08:10:22.425Z,16.97
2023-05-19T08:15:25.347Z,16.87
2023-05-19T08:20:27.585Z,18.15
2023-05-19T08:25:29.889Z,17.65
2023-05-19T08:30:32.299Z,18.07
2023-05-19T08:35:34.820Z,17.22
2023-05-19T08:40:38.443Z,18.24
2023-05-19T08:45:46.700Z,18.08
2023-05-19T08:51:29.804Z,18.94
2023-05-19T08:56:32.402Z,18.96
2023-05-19T09:06:42.476Z,20.49
2023-05-19T09:11:47.339Z,20.13
2023-05-19T09:16:52.700Z,19.60
2023-05-19T09:22:06.410Z,18.84
2023-05-19T09:27:09.024Z,19.80
2023-05-19T09:32:11.352Z,19.70
2023-05-19T09:37:15.600Z,19.77
2023-05-19T09:42:19.884Z,20.13
2023-05-19T09:47:22.106Z,19.46
2023-05-19T09:52:24.948Z,19.37
2023-05-19T09:57:28.526Z,18.89
2023-05-19T10:02:32.204Z,19.42
2023-05-19T10:07:35.605Z,19.74
2023-05-19T10:12:40.277Z,20.20
2023-05-19T10:17:45.109Z,20.03
2023-05-19T10:22:48.655Z,19.26
2023-05-19T10:27:57.150Z,18.33
2023-05-19T10:33:02.046Z,19.40
2023-05-19T10:38:16.924Z,20.83
2023-05-19T10:43:53.269Z,19.76
2023-05-19T10:48:56.046Z,20.37
2023-05-19T10:53:58.989Z,19.74
2023-05-19T10:59:03.307Z,20.70
2023-05-19T11:04:12.426Z,20.55
2023-05-19T11:09:19.477Z,21.12
2023-05-19T11:14:26.953Z,20.43
2023-05-19T11:19:31.952Z,20.18
2023-05-19T11:24:45.915Z,20.72
2023-05-19T11:29:49.287Z,20.54
2023-05-19T11:34:52.145Z,19.96
2023-05-19T11:39:54.470Z,20.32
2023-05-19T11:44:56.898Z,20.97
2023-05-19T11:49:59.433Z,21.07
2023-05-19T11:55:01.848Z,20.62
2023-05-19T12:00:09.088Z,21.22
2023-05-19T12:05:22.832Z,21.35
2023-05-19T12:10:28.902Z,20.65
2023-05-19T12:15:32.507Z,20.77
2023-05-19T12:20:36.214Z,20.81
2023-05-19T12:25:38.907Z,20.83
2023-05-19T12:30:41.521Z,21.71
2023-05-19T12:35:43.906Z,21.49
2023-05-19T12:40:46.188Z,21.20
2023-05-19T12:45:49.877Z,21.03
2023-05-19T12:50:54.759Z,22.34
2023-05-19T12:55:57.279Z,21.72
2023-05-19T13:01:00.419Z,20.84
2023-05-19T13:06:02.967Z,20.40
2023-05-19T13:11:05.302Z,20.59
2023-05-19T13:16:07.883Z,20.22
2023-05-19T13:21:10.238Z,20.56
2023-05-19T13:26:13.373Z,20.80
2023-05-19T13:31:15.922Z,21.20
2023-05-19T13:36:18.333Z,20.63
2023-05-19T13:41:27.068Z,20.17
2023-05-19T13:46:56.481Z,21.49
2023-05-19T13:51:59.993Z,20.58
2023-05-19T13:57:02.236Z,21.36
2023-05-19T14:02:05.699Z,20.75
2023-05-19T14:07:11.283Z,21.56
2023-05-19T14:12:13.940Z,20.34
2023-05-19T14:17:16.480Z,20.50
2023-05-19T14:22:19.790Z,20.21
2023-05-19T14:27:22.117Z,19.45
2023-05-19T14:32:24.504Z,20.10
2023-05-19T14:37:29.093Z,20.59
2023-05-19T14:42:31.661Z,19.78
2023-05-19T14:47:33.962Z,20.08
2023-05-19T14:52:36.153Z,19.62
2023-05-19T14:57:38.485Z,19.62
2023-05-19T15:02:41.056Z,19.40
2023-05-19T15:07:43.301Z,19.61
2023-05-19T15:12:45.602Z,19.38
2023-05-19T15:17:48.052Z,19.32
2023-05-19T15:22:50.516Z,19.07
2023-05-19T15:27:52.757Z,19.32
2023-05-19T15:32:55.659Z,19.25
2023-05-19T15:37:58.039Z,19.35
2023-05-19T15:43:00.681Z,19.39
2023-05-19T15:48:03.239Z,19.39
2023-05-19T15:53:07.822Z,19.70
2023-05-19T15:58:10.176Z,19.20
2023-05-19T16:03:12.798Z,19.66
2023-05-19T16:08:15.320Z,18.97
2023-05-19T16:13:17.679Z,19.22
2023-05-19T16:18:20.019Z,19.27
2023-05-19T16:23:22.334Z,18.70
2023-05-19T16:28:25.139Z,19.30
2023-05-19T16:33:28.471Z,19.11
2023-05-19T16:38:30.793Z,18.68
2023-05-19T16:43:34.054Z,18.75
2023-05-19T16:48:36.354Z,19.12
2023-05-19T16:53:39.776Z,19.17
2023-05-19T16:58:42.059Z,18.43
2023-05-19T17:03:44.379Z,17.97
2023-05-19T17:08:46.686Z,18.47
2023-05-19T17:13:48.894Z,18.15
2023-05-19T17:18:51.759Z,18.11
2023-05-19T17:23:54.022Z,18.22
2023-05-19T17:28:56.310Z,18.16
2023-05-19T17:33:58.492Z,18.85
2023-05-19T17:39:00.723Z,18.31
2023-05-19T17:44:03.944Z,18.33
2023-05-19T17:49:06.888Z,18.17
2023-05-19T17:54:09.526Z,18.11
2023-05-19T17:59:12.472Z,17.52
2023-05-19T18:04:16.142Z,18.15
2023-05-19T18:09:20.470Z,18.07
2023-05-19T18:14:22.788Z,17.82
2023-05-19T18:19:25.069Z,17.61
2023-05-19T18:24:27.383Z,17.50
2023-05-19T18:29:29.699Z,17.64
2023-05-19T18:34:31.917Z,18.25
2023-05-19T18:39:34.256Z,17.71
2023-05-19T18:44:36.431Z,17.44
2023-05-19T18:49:38.932Z,17.70
2023-05-19T18:54:42.364Z,17.65
2023-05-19T18:59:44.694Z,17.66
2023-05-19T19:04:46.962Z,17.25
2023-05-19T19:09:49.272Z,16.71
2023-05-19T19:14:51.832Z,17.61
2023-05-19T19:19:54.223Z,17.40
2023-05-19T19:24:56.495Z,17.02
2023-05-19T19:29:59.534Z,16.34
2023-05-19T19:35:01.979Z,16.36
2023-05-19T19:40:04.886Z,16.19
2023-05-19T19:45:08.107Z,16.55
2023-05-19T19:50:11.513Z,16.25
2023-05-19T19:55:14.091Z,15.94
2023-05-19T20:00:17.378Z,16.33
2023-05-19T20:05:20.037Z,15.58
2023-05-19T20:10:22.276Z,16.08
2023-05-19T20:15:24.585Z,15.47
2023-05-19T20:20:27.029Z,15.95
2023-05-19T20:25:29.271Z,16.13
2023-05-19T20:30:31.663Z,16.55
2023-05-19T20:35:34.293Z,16.64
2023-05-19T20:40:38.642Z,16.08
2023-05-19T20:45:44.421Z,15.55
2023-05-19T20:50:46.819Z,15.58
2023-05-19T20:55:49.437Z,15.41
2023-05-19T21:00:57.839Z,15.61
2023-05-19T21:06:00.905Z,15.68
2023-05-19T21:11:03.125Z,14.85
2023-05-19T21:16:06.160Z,14.98
2023-05-19T21:21:08.427Z,15.30
2023-05-19T21:26:10.744Z,15.98
2023-05-19T21:31:13.424Z,15.59
2023-05-19T21:36:16.834Z,15.34
2023-05-19T21:41:19.195Z,16.13
2023-05-19T21:46:21.527Z,16.39
2023-05-19T21:51:23.776Z,16.33
2023-05-19T21:56:26.588Z,16.41
2023-05-19T22:01:29.059Z,15.94
2023-05-19T22:06:31.536Z,16.17
2023-05-19T22:11:33.890Z,15.15
2023-05-19T22:16:36.346Z,15.96
2023-05-19T22:21:38.532Z,15.65
2023-05-19T22:26:42.800Z,15.48
2023-05-19T22:31:45.500Z,15.52
2023-05-19T22:36:47.954Z,14.91
2023-05-19T22:41:50.367Z,15.18
2023-05-19T22:46:52.720Z,14.84
2023-05-19T22:51:55.006Z,15.40
2023-05-19T22:56:57.322Z,15.59
2023-05-19T23:01:59.699Z,15.07
2023-05-19T23:07:02.038Z,15.10
2023-05-19T23:12:04.443Z,15.09
2023-05-19T23:17:06.766Z,15.78
2023-05-19T23:22:11.106Z,15.61
2023-05-19T23:27:13.565Z,14.93
2023-05-19T23:32:16.117Z,15.22
2023-05-19T23:37:18.414Z,15.08
2023-05-19T23:42:20.852Z,15.14
2023-05-19T23:47:23.184Z,15.54
2023-05-19T23:52:25.492Z,15.62
2023-05-19T23:57:27.788Z,15.19
